Bastogne — ONHG — position and weather

sailwx.info

Track history (hours):
 
Tides and Currents Weather Stations Pressure Air Temp Water Temp Dewpoint Dewpoint Depression Visibility Wind Speed Wind Dir Waves Ship Positions

Bastogne

Last reported at 2018-Aug-14 19:32 UTC. Time now 2018-Aug-14 23:43 UTC.
Position N 35°54' W 000°06'.

Length 175 m; draft 7.1 m.

Type: Tanker. MMSI: 205612000.

Date/timePositionNaut miles runAvg speedWind from/ knotsBaromVisibWave heightAir tempDewpointWater temp
2018-Aug-14 19:32N 35°54' W 000°06'1 0.7
2018-Aug-14 18:37N 35°55' W 000°06'0 0.7
2018-Aug-14 18:08N 35°55' W 000°06'0 0.7
2018-Aug-14 17:54N 35°56' W 000°06'0 0.7
2018-Aug-14 17:29N 35°56' W 000°06'0 0.8
2018-Aug-14 16:53N 35°56' W 000°06'2 1.2
2018-Aug-14 15:14N 35°58' W 000°07'2 0.3
2018-Aug-14 08:10N 35°56' W 000°06'0 0.2
2018-Aug-14 07:35N 35°56' W 000°06'0 0.2
2018-Aug-14 07:24N 35°56' W 000°06'0 0.2
2018-Aug-14 07:00N 35°56' W 000°06'0 0.2
2018-Aug-14 06:30N 35°56' W 000°06'0 0.3
2018-Aug-14 06:00N 35°56' W 000°06'0 0.4
2018-Aug-14 05:30N 35°56' W 000°07'0 0.5
2018-Aug-14 05:00N 35°56' W 000°07'0 0.5
2018-Aug-14 04:30N 35°56' W 000°07'0 0.5
2018-Aug-14 04:00N 35°56' W 000°07'0 0.4
2018-Aug-14 03:26N 35°55' W 000°07'0 0.3
2018-Aug-14 02:58N 35°55' W 000°07'0 0.2
2018-Aug-14 02:30N 35°55' W 000°07'0 0.2
2018-Aug-14 02:00N 35°55' W 000°07'1 1.0
2018-Aug-14 01:30N 35°55' W 000°07'4 6.8
2018-Aug-14 00:56N 35°58' W 000°04'0 0.4
2018-Aug-14 00:30N 35°58' W 000°04'0 0.2
2018-Aug-14 00:00N 35°58' W 000°04'0 0.3
2018-Aug-13 23:30N 35°58' W 000°05'0 0.2
2018-Aug-13 23:00N 35°58' W 000°05'0 0.4
2018-Aug-13 22:25N 35°59' W 000°05'2 1.2
2018-Aug-13 20:58N 35°60' W 000°07'1 1.5
2018-Aug-13 20:30N 35°60' W 000°08'1 1.1
2018-Aug-13 20:00N 36°00' W 000°08'6 4.6
2018-Aug-13 18:38N 35°54' W 000°06'1 0.6
2018-Aug-13 17:27N 35°55' W 000°05'1 0.9
2018-Aug-13 16:41N 35°56' W 000°05'5 0.3
2018-Aug-13 00:13N 35°58' W 000°10'0 0.3
2018-Aug-13 00:01N 35°58' W 000°11'0 0.4
2018-Aug-12 23:28N 35°58' W 000°11'2 0.3
2018-Aug-12 16:34N 35°60' W 000°09'0 0.6
2018-Aug-12 16:23N 35°60' W 000°09'0 0.4
2018-Aug-12 16:00N 36°00' W 000°09'0 0.3
2018-Aug-12 15:27N 36°00' W 000°09'23612.1
2018-Aug-11 19:56N 36°07' W 005°01'614.5
2018-Aug-11 19:30N 36°05' W 005°09'714.6
2018-Aug-11 19:00N 36°04' W 005°17'611.8
2018-Aug-11 18:30N 36°08' W 005°23'1 1.1
2018-Aug-11 17:56N 36°08' W 005°22'0 0.0
2018-Aug-11 15:26N 36°08' W 005°22'0 0.0
2018-Aug-11 14:56N 36°08' W 005°22'0 0.1
2018-Aug-11 14:26N 36°08' W 005°22'0 0.3
2018-Aug-11 13:56N 36°08' W 005°22'0 0.2
2018-Aug-11 13:26N 36°08' W 005°22'0 0.0
2018-Aug-11 12:56N 36°08' W 005°22'0 0.0
2018-Aug-11 08:47N 36°08' W 005°22'1 2.1
2018-Aug-11 08:31N 36°07' W 005°22'3 4.8
2018-Aug-11 07:56N 36°05' W 005°20'4 7.1
2018-Aug-11 07:22N 36°05' W 005°15'21712.4
2018-Aug-10 13:54N 37°16' W 000°60'512.3
2018-Aug-10 13:29N 37°20' W 000°55'713.8
2018-Aug-10 13:00N 37°24' W 000°49'613.2
2018-Aug-10 12:30N 37°28' W 000°43'612.5
2018-Aug-10 12:00N 37°32' W 000°36'714.0
2018-Aug-10 11:30N 37°37' W 000°31'714.7
2018-Aug-10 11:00N 37°44' W 000°26'714.8
2018-Aug-10 10:30N 37°50' W 000°21'714.9
2018-Aug-10 10:00N 37°56' W 000°15'815.0
2018-Aug-10 09:30N 38°02' W 000°10'38214.8
2018-Aug-09 07:45N 43°06' E 004°55'313.9
2018-Aug-09 07:30N 43°09' E 004°58'612.4
2018-Aug-09 07:00N 43°15' E 004°60'713.7
2018-Aug-09 06:30N 43°22' E 004°57'1 2.4
2018-Aug-09 06:00N 43°22' E 004°56'0 0.1
2018-Aug-09 05:30N 43°22' E 004°56'0 0.0
2018-Aug-09 05:00N 43°22' E 004°56'0 0.0
2018-Aug-09 04:30N 43°22' E 004°56'0 0.0
2018-Aug-09 03:57N 43°22' E 004°56'0 0.0
2018-Aug-09 03:30N 43°22' E 004°56'0 0.1
2018-Aug-09 03:00N 43°22' E 004°56'0 0.0
2018-Aug-09 02:30N 43°22' E 004°56'0 0.0
2018-Aug-09 02:00N 43°22' E 004°56'0 0.0
2018-Aug-09 01:30N 43°22' E 004°56'0 0.0
2018-Aug-09 01:00N 43°22' E 004°56'0 0.0
2018-Aug-09 00:30N 43°22' E 004°56'0 0.0
2018-Aug-09 00:00N 43°22' E 004°56'0 0.0
2018-Aug-08 23:30N 43°22' E 004°56'0 0.0
2018-Aug-08 23:00N 43°22' E 004°56'0 0.0
2018-Aug-08 22:30N 43°22' E 004°56'0 0.0
2018-Aug-08 22:00N 43°22' E 004°56'0 0.0
2018-Aug-08 21:30N 43°22' E 004°56'0 0.0
2018-Aug-08 21:00N 43°22' E 004°56'0 0.0
2018-Aug-08 20:30N 43°22' E 004°56'0 0.0
2018-Aug-08 20:00N 43°22' E 004°56'0 0.0
2018-Aug-08 19:27N 43°22' E 004°56'0 0.0
2018-Aug-08 19:00N 43°22' E 004°56'0 0.0
2018-Aug-08 18:30N 43°22' E 004°56'0 0.0
2018-Aug-08 18:00N 43°22' E 004°56'0 0.0
2018-Aug-08 17:30N 43°22' E 004°56'0 0.0
2018-Aug-08 17:00N 43°22' E 004°56'0 0.0
2018-Aug-08 16:30N 43°22' E 004°56'0 0.0
2018-Aug-08 16:00N 43°22' E 004°56'0 0.0
2018-Aug-08 15:30N 43°22' E 004°56'0 0.0
2018-Aug-08 15:00N 43°22' E 004°56'0 0.0
2018-Aug-08 14:30N 43°22' E 004°56'0 0.0
2018-Aug-08 14:00N 43°22' E 004°56'0 0.0
2018-Aug-08 13:30N 43°22' E 004°56'0 0.0
2018-Aug-08 13:00N 43°22' E 004°56'0 0.0
2018-Aug-08 12:27N 43°22' E 004°56'0 0.0
2018-Aug-08 12:00N 43°22' E 004°56'0 0.0
2018-Aug-08 11:30N 43°22' E 004°56'0 0.0
2018-Aug-08 11:00N 43°22' E 004°56'0 0.0
2018-Aug-08 10:30N 43°22' E 004°56'0 0.0
2018-Aug-08 10:00N 43°22' E 004°56'0 0.0
2018-Aug-08 09:30N 43°22' E 004°56'0 0.0
2018-Aug-08 09:00N 43°22' E 004°56'0 0.0
2018-Aug-08 08:30N 43°22' E 004°56'0 0.0
2018-Aug-08 08:00N 43°22' E 004°56'0 0.0
2018-Aug-08 07:30N 43°22' E 004°56'0 0.0
2018-Aug-08 07:00N 43°22' E 004°56'0 0.0
2018-Aug-08 06:30N 43°22' E 004°56'0 0.0
2018-Aug-08 06:00N 43°22' E 004°56'0 0.0
2018-Aug-08 05:30N 43°22' E 004°56'0 0.0
2018-Aug-08 05:00N 43°22' E 004°56'0 0.0
2018-Aug-08 04:30N 43°22' E 004°56'0 0.1
2018-Aug-08 04:00N 43°22' E 004°56'0 0.0
2018-Aug-08 03:21N 43°22' E 004°56'0 0.0
2018-Aug-08 03:00N 43°22' E 004°56'0 0.0
2018-Aug-08 02:30N 43°22' E 004°56'0 0.0
2018-Aug-08 02:00N 43°22' E 004°56'0 0.1
2018-Aug-08 01:30N 43°22' E 004°56'0 0.0
2018-Aug-08 01:00N 43°22' E 004°56'0 0.0
2018-Aug-08 00:30N 43°22' E 004°56'0 0.1
2018-Aug-08 00:00N 43°22' E 004°56'0 0.1
2018-Aug-07 23:30N 43°22' E 004°56'0 0.0
2018-Aug-07 23:00N 43°22' E 004°56'0 0.1
2018-Aug-07 22:30N 43°22' E 004°56'0 0.1
2018-Aug-07 22:00N 43°22' E 004°56'0 0.0
2018-Aug-07 21:30N 43°22' E 004°56'0 0.0
2018-Aug-07 21:00N 43°22' E 004°56'0 0.0
2018-Aug-07 20:30N 43°22' E 004°56'0 0.0
2018-Aug-07 20:00N 43°22' E 004°56'0 0.0
2018-Aug-07 19:30N 43°22' E 004°56'0 0.0
2018-Aug-07 19:00N 43°22' E 004°56'0 0.0
2018-Aug-07 18:30N 43°22' E 004°56'0 0.0
2018-Aug-07 18:00N 43°22' E 004°56'0 0.0
2018-Aug-07 17:30N 43°22' E 004°56'0 0.0
2018-Aug-07 17:00N 43°22' E 004°56'0 0.0
2018-Aug-07 16:30N 43°22' E 004°56'0 0.0
2018-Aug-07 16:00N 43°22' E 004°56'0 0.0
2018-Aug-07 15:30N 43°22' E 004°56'0 0.0
2018-Aug-07 15:00N 43°22' E 004°56'0 0.0
2018-Aug-07 14:30N 43°22' E 004°56'0 0.0
2018-Aug-07 14:00N 43°22' E 004°56'0 0.0
2018-Aug-07 13:30N 43°22' E 004°56'0 0.0
2018-Aug-07 13:00N 43°22' E 004°56'0 0.0
2018-Aug-07 12:30N 43°22' E 004°56'0 0.0
2018-Aug-07 12:00N 43°22' E 004°56'0 0.0
2018-Aug-07 11:30N 43°22' E 004°56'0 0.0
2018-Aug-07 11:00N 43°22' E 004°56'0 0.0
2018-Aug-07 10:30N 43°22' E 004°56'0 0.0
2018-Aug-07 10:00N 43°22' E 004°56'0 0.0
2018-Aug-07 09:30N 43°22' E 004°56'0 0.0
2018-Aug-07 09:00N 43°22' E 004°56'0 0.0
2018-Aug-07 08:30N 43°22' E 004°56'0 0.0
2018-Aug-07 08:00N 43°22' E 004°56'0 0.1
2018-Aug-07 07:30N 43°22' E 004°56'0 0.0
2018-Aug-07 07:00N 43°22' E 004°56'0 0.0
2018-Aug-07 06:30N 43°22' E 004°56'0 0.0
2018-Aug-07 06:00N 43°22' E 004°56'0 0.0
2018-Aug-07 05:30N 43°22' E 004°56'0 0.0
2018-Aug-07 05:00N 43°22' E 004°56'0 0.0
2018-Aug-07 04:30N 43°22' E 004°56'0 0.0
2018-Aug-07 04:00N 43°22' E 004°56'0 0.0
2018-Aug-07 03:30N 43°22' E 004°56'0 0.0
2018-Aug-07 02:57N 43°22' E 004°56'0 0.0
2018-Aug-07 02:30N 43°22' E 004°56'0 0.0
2018-Aug-07 02:00N 43°22' E 004°56'0 0.0
2018-Aug-07 01:30N 43°22' E 004°56'0 0.0
2018-Aug-07 01:00N 43°22' E 004°56'0 0.0
2018-Aug-07 00:21N 43°22' E 004°56'0 0.0
2018-Aug-07 00:00N 43°22' E 004°56'0 0.1
2018-Aug-06 23:30N 43°22' E 004°56'0 0.0
2018-Aug-06 23:00N 43°22' E 004°56'0 0.1
2018-Aug-06 22:30N 43°22' E 004°56'0 0.0
2018-Aug-06 22:00N 43°22' E 004°56'0 0.0
2018-Aug-06 21:30N 43°22' E 004°56'0 0.1
2018-Aug-06 21:00N 43°22' E 004°56'0 0.0
2018-Aug-06 20:24N 43°22' E 004°56'0 0.1
2018-Aug-06 20:00N 43°22' E 004°56'0 0.0
2018-Aug-06 19:30N 43°22' E 004°56'0 0.0
2018-Aug-06 19:00N 43°22' E 004°56'0 0.0
2018-Aug-06 18:30N 43°22' E 004°56'0 0.0
2018-Aug-06 18:00N 43°22' E 004°56'0 0.0
2018-Aug-06 17:30N 43°22' E 004°56'0 0.0
2018-Aug-06 17:00N 43°22' E 004°56'0 0.0
2018-Aug-06 16:30N 43°22' E 004°56'0 0.0
2018-Aug-06 16:00N 43°22' E 004°56'0 0.0
2018-Aug-06 15:30N 43°22' E 004°56'0 0.0
2018-Aug-06 15:00N 43°22' E 004°56'0 0.0
2018-Aug-06 14:30N 43°22' E 004°56'0 0.0
2018-Aug-06 14:00N 43°22' E 004°56'0 0.0
2018-Aug-06 13:30N 43°22' E 004°56'0 0.0
2018-Aug-06 13:00N 43°22' E 004°56'0 0.0
2018-Aug-06 12:30N 43°22' E 004°56'0 0.0
2018-Aug-06 12:00N 43°22' E 004°56'0 0.0
2018-Aug-06 11:30N 43°22' E 004°56'0 0.0
2018-Aug-06 11:00N 43°22' E 004°56'0 0.0
2018-Aug-06 10:30N 43°22' E 004°56'0 0.0
2018-Aug-06 10:00N 43°22' E 004°56'0 0.1
2018-Aug-06 09:30N 43°22' E 004°56'0 0.0
2018-Aug-06 09:00N 43°22' E 004°56'0 0.1
2018-Aug-06 08:30N 43°22' E 004°56'0 0.1
2018-Aug-06 08:00N 43°22' E 004°56'0 0.0
2018-Aug-06 07:30N 43°22' E 004°56'0 0.0
2018-Aug-06 06:54N 43°22' E 004°56'0 0.1
2018-Aug-06 06:30N 43°22' E 004°56'0 0.1
2018-Aug-06 06:00N 43°22' E 004°56'0 0.1
2018-Aug-06 05:30N 43°22' E 004°56'0 0.0
2018-Aug-06 05:00N 43°22' E 004°56'0 0.0
2018-Aug-06 04:27N 43°22' E 004°56'0 0.1
2018-Aug-06 04:00N 43°22' E 004°56'0 0.1
2018-Aug-06 03:30N 43°22' E 004°56'0 0.0
2018-Aug-06 03:00N 43°22' E 004°56'0 0.0
2018-Aug-06 02:30N 43°22' E 004°56'0 0.0
2018-Aug-06 02:00N 43°22' E 004°56'0 0.1
2018-Aug-06 01:30N 43°22' E 004°56'0 0.1
2018-Aug-06 01:00N 43°22' E 004°56'0 0.1
2018-Aug-06 00:30N 43°22' E 004°56'0 0.0
2018-Aug-06 00:00N 43°22' E 004°56'0 0.0
2018-Aug-05 23:30N 43°22' E 004°56'0 0.0
2018-Aug-05 23:00N 43°22' E 004°56'0 0.0
2018-Aug-05 22:30N 43°22' E 004°56'0 0.1
2018-Aug-05 22:00N 43°22' E 004°56'0 0.1
2018-Aug-05 21:30N 43°22' E 004°56'0 0.1
2018-Aug-05 21:00N 43°22' E 004°56'0 0.1
2018-Aug-05 20:30N 43°22' E 004°56'0 0.0
2018-Aug-05 20:00N 43°22' E 004°56'0 0.2
2018-Aug-05 19:30N 43°22' E 004°56'0 0.2
2018-Aug-05 19:00N 43°22' E 004°56'0 0.0
2018-Aug-05 18:30N 43°22' E 004°56'0 0.0
2018-Aug-05 18:00N 43°22' E 004°56'0 0.0
2018-Aug-05 17:30N 43°22' E 004°56'0 0.1
2018-Aug-05 17:00N 43°22' E 004°56'0 0.1
2018-Aug-05 16:30N 43°22' E 004°56'0 0.1
2018-Aug-05 15:57N 43°22' E 004°56'0 0.0
2018-Aug-05 15:30N 43°22' E 004°56'0 0.0
2018-Aug-05 15:00N 43°22' E 004°56'0 0.0
2018-Aug-05 14:00N 43°22' E 004°56'0 0.0
2018-Aug-05 13:30N 43°22' E 004°56'0 0.0
2018-Aug-05 13:00N 43°22' E 004°56'0 0.0
2018-Aug-05 12:27N 43°22' E 004°56'0 0.0
2018-Aug-05 12:00N 43°22' E 004°56'0 0.0
2018-Aug-05 11:27N 43°22' E 004°56'0 0.0
2018-Aug-05 11:00N 43°22' E 004°56'0 0.0
2018-Aug-05 10:30N 43°22' E 004°56'0 0.0
2018-Aug-05 10:00N 43°22' E 004°56'0 0.1
2018-Aug-05 09:30N 43°22' E 004°56'0 0.1
2018-Aug-05 09:00N 43°22' E 004°56'0 0.1
2018-Aug-05 08:30N 43°22' E 004°56'0 0.0
2018-Aug-05 08:00N 43°22' E 004°56'0 0.0
2018-Aug-05 07:30N 43°22' E 004°56'0 0.0
2018-Aug-05 07:00N 43°22' E 004°56'0 0.0
2018-Aug-05 06:30N 43°22' E 004°56'0 0.0
2018-Aug-05 06:00N 43°22' E 004°56'0 0.2
2018-Aug-05 05:30N 43°22' E 004°56'0 0.1
2018-Aug-05 04:57N 43°22' E 004°56'0 0.0
2018-Aug-05 04:30N 43°22' E 004°56'0 0.0
2018-Aug-05 04:00N 43°22' E 004°56'0 0.0
2018-Aug-05 03:30N 43°22' E 004°56'0 0.0
2018-Aug-05 03:00N 43°22' E 004°56'0 0.0
2018-Aug-05 02:30N 43°22' E 004°56'0 0.0
2018-Aug-05 02:00N 43°22' E 004°56'0 0.0
2018-Aug-05 01:30N 43°22' E 004°56'0 0.0
2018-Aug-05 01:00N 43°22' E 004°56'0 0.0
2018-Aug-05 00:27N 43°22' E 004°56'0 0.0
2018-Aug-05 00:00N 43°22' E 004°56'0 0.0
2018-Aug-04 23:27N 43°22' E 004°56'0 0.0
2018-Aug-04 22:57N 43°22' E 004°56'0 0.0
2018-Aug-04 22:30N 43°22' E 004°56'0 0.0
2018-Aug-04 22:00N 43°22' E 004°56'0 0.0
2018-Aug-04 21:30N 43°22' E 004°56'0 0.1
2018-Aug-04 21:00N 43°22' E 004°56'0 0.1
2018-Aug-04 20:30N 43°22' E 004°56'0 0.1
2018-Aug-04 19:57N 43°22' E 004°56'  
Track history (hours):
 
Tides and Currents Weather Stations Pressure Air Temp Water Temp Dewpoint Dewpoint Depression Visibility Wind Speed Wind Dir Waves Ship Positions

Bastogne

Last reported at 2018-Aug-14 19:32 UTC. Time now 2018-Aug-14 23:43 UTC.
Position N 35°54' W 000°06'.

Length 175 m; draft 7.1 m.

Type: Tanker. MMSI: 205612000.

Date/timePositionNaut miles runAvg speedWind from/ knotsBaromVisibWave heightAir tempDewpointWater temp
2018-Aug-14 19:32N 35°54' W 000°06'1 0.7
2018-Aug-14 18:37N 35°55' W 000°06'0 0.7
2018-Aug-14 18:08N 35°55' W 000°06'0 0.7
2018-Aug-14 17:54N 35°56' W 000°06'0 0.7
2018-Aug-14 17:29N 35°56' W 000°06'0 0.8
2018-Aug-14 16:53N 35°56' W 000°06'2 1.2
2018-Aug-14 15:14N 35°58' W 000°07'2 0.3
2018-Aug-14 08:10N 35°56' W 000°06'0 0.2
2018-Aug-14 07:35N 35°56' W 000°06'0 0.2
2018-Aug-14 07:24N 35°56' W 000°06'0 0.2
2018-Aug-14 07:00N 35°56' W 000°06'0 0.2
2018-Aug-14 06:30N 35°56' W 000°06'0 0.3
2018-Aug-14 06:00N 35°56' W 000°06'0 0.4
2018-Aug-14 05:30N 35°56' W 000°07'0 0.5
2018-Aug-14 05:00N 35°56' W 000°07'0 0.5
2018-Aug-14 04:30N 35°56' W 000°07'0 0.5
2018-Aug-14 04:00N 35°56' W 000°07'0 0.4
2018-Aug-14 03:26N 35°55' W 000°07'0 0.3
2018-Aug-14 02:58N 35°55' W 000°07'0 0.2
2018-Aug-14 02:30N 35°55' W 000°07'0 0.2
2018-Aug-14 02:00N 35°55' W 000°07'1 1.0
2018-Aug-14 01:30N 35°55' W 000°07'4 6.8
2018-Aug-14 00:56N 35°58' W 000°04'0 0.4
2018-Aug-14 00:30N 35°58' W 000°04'0 0.2
2018-Aug-14 00:00N 35°58' W 000°04'0 0.3
2018-Aug-13 23:30N 35°58' W 000°05'0 0.2
2018-Aug-13 23:00N 35°58' W 000°05'0 0.4
2018-Aug-13 22:25N 35°59' W 000°05'2 1.2
2018-Aug-13 20:58N 35°60' W 000°07'1 1.5
2018-Aug-13 20:30N 35°60' W 000°08'1 1.1
2018-Aug-13 20:00N 36°00' W 000°08'6 4.6
2018-Aug-13 18:38N 35°54' W 000°06'1 0.6
2018-Aug-13 17:27N 35°55' W 000°05'1 0.9
2018-Aug-13 16:41N 35°56' W 000°05'5 0.3
2018-Aug-13 00:13N 35°58' W 000°10'0 0.3
2018-Aug-13 00:01N 35°58' W 000°11'0 0.4
2018-Aug-12 23:28N 35°58' W 000°11'2 0.3
2018-Aug-12 16:34N 35°60' W 000°09'0 0.6
2018-Aug-12 16:23N 35°60' W 000°09'0 0.4
2018-Aug-12 16:00N 36°00' W 000°09'0 0.3
2018-Aug-12 15:27N 36°00' W 000°09'23612.1
2018-Aug-11 19:56N 36°07' W 005°01'614.5
2018-Aug-11 19:30N 36°05' W 005°09'714.6
2018-Aug-11 19:00N 36°04' W 005°17'611.8
2018-Aug-11 18:30N 36°08' W 005°23'1 1.1
2018-Aug-11 17:56N 36°08' W 005°22'0 0.0
2018-Aug-11 15:26N 36°08' W 005°22'0 0.0
2018-Aug-11 14:56N 36°08' W 005°22'0 0.1
2018-Aug-11 14:26N 36°08' W 005°22'0 0.3
2018-Aug-11 13:56N 36°08' W 005°22'0 0.2
2018-Aug-11 13:26N 36°08' W 005°22'0 0.0
2018-Aug-11 12:56N 36°08' W 005°22'0 0.0
2018-Aug-11 08:47N 36°08' W 005°22'1 2.1
2018-Aug-11 08:31N 36°07' W 005°22'3 4.8
2018-Aug-11 07:56N 36°05' W 005°20'4 7.1
2018-Aug-11 07:22N 36°05' W 005°15'21712.4
2018-Aug-10 13:54N 37°16' W 000°60'512.3
2018-Aug-10 13:29N 37°20' W 000°55'713.8
2018-Aug-10 13:00N 37°24' W 000°49'613.2
2018-Aug-10 12:30N 37°28' W 000°43'612.5
2018-Aug-10 12:00N 37°32' W 000°36'714.0
2018-Aug-10 11:30N 37°37' W 000°31'714.7
2018-Aug-10 11:00N 37°44' W 000°26'714.8
2018-Aug-10 10:30N 37°50' W 000°21'714.9
2018-Aug-10 10:00N 37°56' W 000°15'815.0
2018-Aug-10 09:30N 38°02' W 000°10'38214.8
2018-Aug-09 07:45N 43°06' E 004°55'313.9
2018-Aug-09 07:30N 43°09' E 004°58'612.4
2018-Aug-09 07:00N 43°15' E 004°60'713.7
2018-Aug-09 06:30N 43°22' E 004°57'1 2.4
2018-Aug-09 06:00N 43°22' E 004°56'0 0.1
2018-Aug-09 05:30N 43°22' E 004°56'0 0.0
2018-Aug-09 05:00N 43°22' E 004°56'0 0.0
2018-Aug-09 04:30N 43°22' E 004°56'0 0.0
2018-Aug-09 03:57N 43°22' E 004°56'0 0.0
2018-Aug-09 03:30N 43°22' E 004°56'0 0.1
2018-Aug-09 03:00N 43°22' E 004°56'0 0.0
2018-Aug-09 02:30N 43°22' E 004°56'0 0.0
2018-Aug-09 02:00N 43°22' E 004°56'0 0.0
2018-Aug-09 01:30N 43°22' E 004°56'0 0.0
2018-Aug-09 01:00N 43°22' E 004°56'0 0.0
2018-Aug-09 00:30N 43°22' E 004°56'0 0.0
2018-Aug-09 00:00N 43°22' E 004°56'0 0.0
2018-Aug-08 23:30N 43°22' E 004°56'0 0.0
2018-Aug-08 23:00N 43°22' E 004°56'0 0.0
2018-Aug-08 22:30N 43°22' E 004°56'0 0.0
2018-Aug-08 22:00N 43°22' E 004°56'0 0.0
2018-Aug-08 21:30N 43°22' E 004°56'0 0.0
2018-Aug-08 21:00N 43°22' E 004°56'0 0.0
2018-Aug-08 20:30N 43°22' E 004°56'0 0.0
2018-Aug-08 20:00N 43°22' E 004°56'0 0.0
2018-Aug-08 19:27N 43°22' E 004°56'0 0.0
2018-Aug-08 19:00N 43°22' E 004°56'0 0.0
2018-Aug-08 18:30N 43°22' E 004°56'0 0.0
2018-Aug-08 18:00N 43°22' E 004°56'0 0.0
2018-Aug-08 17:30N 43°22' E 004°56'0 0.0
2018-Aug-08 17:00N 43°22' E 004°56'0 0.0
2018-Aug-08 16:30N 43°22' E 004°56'0 0.0
2018-Aug-08 16:00N 43°22' E 004°56'0 0.0
2018-Aug-08 15:30N 43°22' E 004°56'0 0.0
2018-Aug-08 15:00N 43°22' E 004°56'0 0.0
2018-Aug-08 14:30N 43°22' E 004°56'0 0.0
2018-Aug-08 14:00N 43°22' E 004°56'0 0.0
2018-Aug-08 13:30N 43°22' E 004°56'0 0.0
2018-Aug-08 13:00N 43°22' E 004°56'0 0.0
2018-Aug-08 12:27N 43°22' E 004°56'0 0.0
2018-Aug-08 12:00N 43°22' E 004°56'0 0.0
2018-Aug-08 11:30N 43°22' E 004°56'0 0.0
2018-Aug-08 11:00N 43°22' E 004°56'0 0.0
2018-Aug-08 10:30N 43°22' E 004°56'0 0.0
2018-Aug-08 10:00N 43°22' E 004°56'0 0.0
2018-Aug-08 09:30N 43°22' E 004°56'0 0.0
2018-Aug-08 09:00N 43°22' E 004°56'0 0.0
2018-Aug-08 08:30N 43°22' E 004°56'0 0.0
2018-Aug-08 08:00N 43°22' E 004°56'0 0.0
2018-Aug-08 07:30N 43°22' E 004°56'0 0.0
2018-Aug-08 07:00N 43°22' E 004°56'0 0.0
2018-Aug-08 06:30N 43°22' E 004°56'0 0.0
2018-Aug-08 06:00N 43°22' E 004°56'0 0.0
2018-Aug-08 05:30N 43°22' E 004°56'0 0.0
2018-Aug-08 05:00N 43°22' E 004°56'0 0.0
2018-Aug-08 04:30N 43°22' E 004°56'0 0.1
2018-Aug-08 04:00N 43°22' E 004°56'0 0.0
2018-Aug-08 03:21N 43°22' E 004°56'0 0.0
2018-Aug-08 03:00N 43°22' E 004°56'0 0.0
2018-Aug-08 02:30N 43°22' E 004°56'0 0.0
2018-Aug-08 02:00N 43°22' E 004°56'0 0.1
2018-Aug-08 01:30N 43°22' E 004°56'0 0.0
2018-Aug-08 01:00N 43°22' E 004°56'0 0.0
2018-Aug-08 00:30N 43°22' E 004°56'0 0.1
2018-Aug-08 00:00N 43°22' E 004°56'0 0.1
2018-Aug-07 23:30N 43°22' E 004°56'0 0.0
2018-Aug-07 23:00N 43°22' E 004°56'0 0.1
2018-Aug-07 22:30N 43°22' E 004°56'0 0.1
2018-Aug-07 22:00N 43°22' E 004°56'0 0.0
2018-Aug-07 21:30N 43°22' E 004°56'0 0.0
2018-Aug-07 21:00N 43°22' E 004°56'0 0.0
2018-Aug-07 20:30N 43°22' E 004°56'0 0.0
2018-Aug-07 20:00N 43°22' E 004°56'0 0.0
2018-Aug-07 19:30N 43°22' E 004°56'0 0.0
2018-Aug-07 19:00N 43°22' E 004°56'0 0.0
2018-Aug-07 18:30N 43°22' E 004°56'0 0.0
2018-Aug-07 18:00N 43°22' E 004°56'0 0.0
2018-Aug-07 17:30N 43°22' E 004°56'0 0.0
2018-Aug-07 17:00N 43°22' E 004°56'0 0.0
2018-Aug-07 16:30N 43°22' E 004°56'0 0.0
2018-Aug-07 16:00N 43°22' E 004°56'0 0.0
2018-Aug-07 15:30N 43°22' E 004°56'0 0.0
2018-Aug-07 15:00N 43°22' E 004°56'0 0.0
2018-Aug-07 14:30N 43°22' E 004°56'0 0.0
2018-Aug-07 14:00N 43°22' E 004°56'0 0.0
2018-Aug-07 13:30N 43°22' E 004°56'0 0.0
2018-Aug-07 13:00N 43°22' E 004°56'0 0.0
2018-Aug-07 12:30N 43°22' E 004°56'0 0.0
2018-Aug-07 12:00N 43°22' E 004°56'0 0.0
2018-Aug-07 11:30N 43°22' E 004°56'0 0.0
2018-Aug-07 11:00N 43°22' E 004°56'0 0.0
2018-Aug-07 10:30N 43°22' E 004°56'0 0.0
2018-Aug-07 10:00N 43°22' E 004°56'0 0.0
2018-Aug-07 09:30N 43°22' E 004°56'0 0.0
2018-Aug-07 09:00N 43°22' E 004°56'0 0.0
2018-Aug-07 08:30N 43°22' E 004°56'0 0.0
2018-Aug-07 08:00N 43°22' E 004°56'0 0.1
2018-Aug-07 07:30N 43°22' E 004°56'0 0.0
2018-Aug-07 07:00N 43°22' E 004°56'0 0.0
2018-Aug-07 06:30N 43°22' E 004°56'0 0.0
2018-Aug-07 06:00N 43°22' E 004°56'0 0.0
2018-Aug-07 05:30N 43°22' E 004°56'0 0.0
2018-Aug-07 05:00N 43°22' E 004°56'0 0.0
2018-Aug-07 04:30N 43°22' E 004°56'0 0.0
2018-Aug-07 04:00N 43°22' E 004°56'0 0.0
2018-Aug-07 03:30N 43°22' E 004°56'0 0.0
2018-Aug-07 02:57N 43°22' E 004°56'0 0.0
2018-Aug-07 02:30N 43°22' E 004°56'0 0.0
2018-Aug-07 02:00N 43°22' E 004°56'0 0.0
2018-Aug-07 01:30N 43°22' E 004°56'0 0.0
2018-Aug-07 01:00N 43°22' E 004°56'0 0.0
2018-Aug-07 00:21N 43°22' E 004°56'0 0.0
2018-Aug-07 00:00N 43°22' E 004°56'0 0.1
2018-Aug-06 23:30N 43°22' E 004°56'0 0.0
2018-Aug-06 23:00N 43°22' E 004°56'0 0.1
2018-Aug-06 22:30N 43°22' E 004°56'0 0.0
2018-Aug-06 22:00N 43°22' E 004°56'0 0.0
2018-Aug-06 21:30N 43°22' E 004°56'0 0.1
2018-Aug-06 21:00N 43°22' E 004°56'0 0.0
2018-Aug-06 20:24N 43°22' E 004°56'0 0.1
2018-Aug-06 20:00N 43°22' E 004°56'0 0.0
2018-Aug-06 19:30N 43°22' E 004°56'0 0.0
2018-Aug-06 19:00N 43°22' E 004°56'0 0.0
2018-Aug-06 18:30N 43°22' E 004°56'0 0.0
2018-Aug-06 18:00N 43°22' E 004°56'0 0.0
2018-Aug-06 17:30N 43°22' E 004°56'0 0.0
2018-Aug-06 17:00N 43°22' E 004°56'0 0.0
2018-Aug-06 16:30N 43°22' E 004°56'0 0.0
2018-Aug-06 16:00N 43°22' E 004°56'0 0.0
2018-Aug-06 15:30N 43°22' E 004°56'0 0.0
2018-Aug-06 15:00N 43°22' E 004°56'0 0.0
2018-Aug-06 14:30N 43°22' E 004°56'0 0.0
2018-Aug-06 14:00N 43°22' E 004°56'0 0.0
2018-Aug-06 13:30N 43°22' E 004°56'0 0.0
2018-Aug-06 13:00N 43°22' E 004°56'0 0.0
2018-Aug-06 12:30N 43°22' E 004°56'0 0.0
2018-Aug-06 12:00N 43°22' E 004°56'0 0.0
2018-Aug-06 11:30N 43°22' E 004°56'0 0.0
2018-Aug-06 11:00N 43°22' E 004°56'0 0.0
2018-Aug-06 10:30N 43°22' E 004°56'0 0.0
2018-Aug-06 10:00N 43°22' E 004°56'0 0.1
2018-Aug-06 09:30N 43°22' E 004°56'0 0.0
2018-Aug-06 09:00N 43°22' E 004°56'0 0.1
2018-Aug-06 08:30N 43°22' E 004°56'0 0.1
2018-Aug-06 08:00N 43°22' E 004°56'0 0.0
2018-Aug-06 07:30N 43°22' E 004°56'0 0.0
2018-Aug-06 06:54N 43°22' E 004°56'0 0.1
2018-Aug-06 06:30N 43°22' E 004°56'0 0.1
2018-Aug-06 06:00N 43°22' E 004°56'0 0.1
2018-Aug-06 05:30N 43°22' E 004°56'0 0.0
2018-Aug-06 05:00N 43°22' E 004°56'0 0.0
2018-Aug-06 04:27N 43°22' E 004°56'0 0.1
2018-Aug-06 04:00N 43°22' E 004°56'0 0.1
2018-Aug-06 03:30N 43°22' E 004°56'0 0.0
2018-Aug-06 03:00N 43°22' E 004°56'0 0.0
2018-Aug-06 02:30N 43°22' E 004°56'0 0.0
2018-Aug-06 02:00N 43°22' E 004°56'0 0.1
2018-Aug-06 01:30N 43°22' E 004°56'0 0.1
2018-Aug-06 01:00N 43°22' E 004°56'0 0.1
2018-Aug-06 00:30N 43°22' E 004°56'0 0.0
2018-Aug-06 00:00N 43°22' E 004°56'0 0.0
2018-Aug-05 23:30N 43°22' E 004°56'0 0.0
2018-Aug-05 23:00N 43°22' E 004°56'0 0.0
2018-Aug-05 22:30N 43°22' E 004°56'0 0.1
2018-Aug-05 22:00N 43°22' E 004°56'0 0.1
2018-Aug-05 21:30N 43°22' E 004°56'0 0.1
2018-Aug-05 21:00N 43°22' E 004°56'0 0.1
2018-Aug-05 20:30N 43°22' E 004°56'0 0.0
2018-Aug-05 20:00N 43°22' E 004°56'0 0.2
2018-Aug-05 19:30N 43°22' E 004°56'0 0.2
2018-Aug-05 19:00N 43°22' E 004°56'0 0.0
2018-Aug-05 18:30N 43°22' E 004°56'0 0.0
2018-Aug-05 18:00N 43°22' E 004°56'0 0.0
2018-Aug-05 17:30N 43°22' E 004°56'0 0.1
2018-Aug-05 17:00N 43°22' E 004°56'0 0.1
2018-Aug-05 16:30N 43°22' E 004°56'0 0.1
2018-Aug-05 15:57N 43°22' E 004°56'0 0.0
2018-Aug-05 15:30N 43°22' E 004°56'0 0.0
2018-Aug-05 15:00N 43°22' E 004°56'0 0.0
2018-Aug-05 14:00N 43°22' E 004°56'0 0.0
2018-Aug-05 13:30N 43°22' E 004°56'0 0.0
2018-Aug-05 13:00N 43°22' E 004°56'0 0.0
2018-Aug-05 12:27N 43°22' E 004°56'0 0.0
2018-Aug-05 12:00N 43°22' E 004°56'0 0.0
2018-Aug-05 11:27N 43°22' E 004°56'0 0.0
2018-Aug-05 11:00N 43°22' E 004°56'0 0.0
2018-Aug-05 10:30N 43°22' E 004°56'0 0.0
2018-Aug-05 10:00N 43°22' E 004°56'0 0.1
2018-Aug-05 09:30N 43°22' E 004°56'0 0.1
2018-Aug-05 09:00N 43°22' E 004°56'0 0.1
2018-Aug-05 08:30N 43°22' E 004°56'0 0.0
2018-Aug-05 08:00N 43°22' E 004°56'0 0.0
2018-Aug-05 07:30N 43°22' E 004°56'0 0.0
2018-Aug-05 07:00N 43°22' E 004°56'0 0.0
2018-Aug-05 06:30N 43°22' E 004°56'0 0.0
2018-Aug-05 06:00N 43°22' E 004°56'0 0.2
2018-Aug-05 05:30N 43°22' E 004°56'0 0.1
2018-Aug-05 04:57N 43°22' E 004°56'0 0.0
2018-Aug-05 04:30N 43°22' E 004°56'0 0.0
2018-Aug-05 04:00N 43°22' E 004°56'0 0.0
2018-Aug-05 03:30N 43°22' E 004°56'0 0.0
2018-Aug-05 03:00N 43°22' E 004°56'0 0.0
2018-Aug-05 02:30N 43°22' E 004°56'0 0.0
2018-Aug-05 02:00N 43°22' E 004°56'0 0.0
2018-Aug-05 01:30N 43°22' E 004°56'0 0.0
2018-Aug-05 01:00N 43°22' E 004°56'0 0.0
2018-Aug-05 00:27N 43°22' E 004°56'0 0.0
2018-Aug-05 00:00N 43°22' E 004°56'0 0.0
2018-Aug-04 23:27N 43°22' E 004°56'0 0.0
2018-Aug-04 22:57N 43°22' E 004°56'0 0.0
2018-Aug-04 22:30N 43°22' E 004°56'0 0.0
2018-Aug-04 22:00N 43°22' E 004°56'0 0.0
2018-Aug-04 21:30N 43°22' E 004°56'0 0.1
2018-Aug-04 21:00N 43°22' E 004°56'0 0.1
2018-Aug-04 20:30N 43°22' E 004°56'0 0.1
2018-Aug-04 19:57N 43°22' E 004°56'  

Dump ship's entire track history